createdAt,value
2022-09-01T00:00:54.849Z,71.52
2022-09-01T00:06:01.030Z,71.78
2022-09-01T00:11:09.657Z,72.00
2022-09-01T00:16:20.951Z,72.11
2022-09-01T00:21:37.269Z,72.36
2022-09-01T00:26:48.030Z,72.58
2022-09-01T00:32:03.880Z,72.63
2022-09-01T00:37:16.764Z,72.71
2022-09-01T00:42:25.226Z,73.02
2022-09-01T00:47:32.887Z,73.36
2022-09-01T00:52:49.764Z,73.90
2022-09-01T00:57:58.060Z,74.10
2022-09-01T01:03:08.880Z,74.55
2022-09-01T01:08:21.917Z,75.03
2022-09-01T01:13:32.596Z,75.24
2022-09-01T01:18:41.640Z,75.30
2022-09-01T01:23:59.598Z,75.03
2022-09-01T01:29:09.949Z,74.78
2022-09-01T01:34:24.468Z,74.98
2022-09-01T01:39:41.357Z,75.44
2022-09-01T01:44:50.856Z,76.08
2022-09-01T01:50:09.788Z,76.72
2022-09-01T01:55:19.702Z,77.07
2022-09-01T02:00:47.781Z,77.60
2022-09-01T02:05:57.103Z,77.66
2022-09-01T02:11:06.616Z,77.79
2022-09-01T02:16:21.579Z,78.27
2022-09-01T02:21:32.460Z,78.47
2022-09-01T02:26:51.992Z,78.44
2022-09-01T02:32:12.088Z,78.44
2022-09-01T02:42:44.549Z,78.10
2022-09-01T02:48:05.090Z,77.95
2022-09-01T02:58:49.651Z,78.17
2022-09-01T03:03:59.626Z,78.06
2022-09-01T03:09:11.217Z,78.00
2022-09-01T03:14:19.453Z,78.17
2022-09-01T03:19:27.634Z,78.17
2022-09-01T03:24:35.293Z,78.90
2022-09-01T03:29:44.138Z,79.27
2022-09-01T03:34:55.026Z,79.69
2022-09-01T03:40:07.538Z,79.51
2022-09-01T03:45:21.741Z,79.46
2022-09-01T03:50:28.707Z,78.79
2022-09-01T03:55:38.509Z,78.76
2022-09-01T04:00:48.919Z,78.28
2022-09-01T04:06:04.137Z,78.12
2022-09-01T04:11:20.571Z,77.91
2022-09-01T04:16:48.710Z,77.35
2022-09-01T04:22:16.754Z,77.28
2022-09-01T04:27:27.726Z,78.05
2022-09-01T04:32:39.646Z,78.22
2022-09-01T04:38:02.362Z,78.36
2022-09-01T04:43:22.072Z,78.32
2022-09-01T04:48:32.742Z,78.53
2022-09-01T04:53:43.421Z,79.06
2022-09-01T04:58:56.204Z,79.52
2022-09-01T05:04:08.159Z,79.67
2022-09-01T05:09:19.296Z,79.40
2022-09-01T05:14:30.246Z,79.80
2022-09-01T05:19:41.231Z,79.93
2022-09-01T05:24:54.986Z,79.99
2022-09-01T05:30:09.510Z,80.24
2022-09-01T05:35:20.874Z,80.02
2022-09-01T05:40:30.898Z,80.33
2022-09-01T05:46:05.231Z,80.26
2022-09-01T05:51:42.312Z,79.61
2022-09-01T05:56:48.409Z,79.37
2022-09-01T06:01:57.276Z,79.07
2022-09-01T06:07:16.885Z,78.25
2022-09-01T06:12:33.296Z,77.48
2022-09-01T06:17:46.316Z,76.99
2022-09-01T06:23:00.966Z,76.45
2022-09-01T06:28:31.702Z,75.25
2022-09-01T06:33:43.843Z,74.32
2022-09-01T06:39:00.881Z,73.95
2022-09-01T06:44:14.843Z,73.39
2022-09-01T06:49:32.829Z,73.52
2022-09-01T06:54:51.694Z,73.03
2022-09-01T07:00:19.064Z,72.72
2022-09-01T07:16:32.882Z,72.46
2022-09-01T07:21:42.345Z,72.22
2022-09-01T07:27:11.035Z,71.80
2022-09-01T07:43:22.577Z,69.94
2022-09-01T07:54:02.630Z,68.53
2022-09-01T07:59:14.947Z,67.32
2022-09-01T08:04:24.238Z,67.20
2022-09-01T08:09:37.757Z,66.46
2022-09-01T08:14:47.224Z,66.90
2022-09-01T08:19:55.356Z,66.72
2022-09-01T08:25:03.696Z,66.11
2022-09-01T08:30:14.676Z,64.33
2022-09-01T08:35:23.095Z,64.51
2022-09-01T08:40:30.513Z,63.79
2022-09-01T08:45:47.500Z,62.76
2022-09-01T08:51:00.731Z,61.59
2022-09-01T08:56:11.047Z,60.62
2022-09-01T09:01:27.871Z,60.94
2022-09-01T09:06:42.661Z,59.01
2022-09-01T09:12:16.552Z,59.42
2022-09-01T09:17:30.879Z,60.05
2022-09-01T09:22:39.240Z,59.36
2022-09-01T09:27:48.073Z,59.38
2022-09-01T09:33:46.587Z,59.88
2022-09-01T09:38:33.252Z,56.18
2022-09-01T09:43:47.511Z,55.60
2022-09-01T09:49:11.774Z,54.91
2022-09-01T09:54:24.296Z,54.61
2022-09-01T09:59:57.191Z,53.54
2022-09-01T10:05:05.547Z,52.56
2022-09-01T10:10:30.685Z,52.72
2022-09-01T10:15:40.646Z,52.56
2022-09-01T10:20:53.683Z,51.60
2022-09-01T10:26:09.579Z,51.57
2022-09-01T10:31:18.640Z,51.35
2022-09-01T10:36:26.123Z,51.81
2022-09-01T10:41:59.591Z,52.57
2022-09-01T10:47:26.016Z,51.93
2022-09-01T10:52:58.491Z,52.17
2022-09-01T11:04:01.440Z,51.16
2022-09-01T11:09:22.813Z,51.62
2022-09-01T11:14:36.150Z,51.44
2022-09-01T11:19:46.087Z,50.53
2022-09-01T11:25:40.864Z,50.32
2022-09-01T11:30:55.494Z,49.19
2022-09-01T11:36:08.296Z,48.87
2022-09-01T11:41:26.149Z,49.80
2022-09-01T11:46:44.364Z,47.62
2022-09-01T11:51:52.013Z,46.83
2022-09-01T11:56:59.831Z,48.06
2022-09-01T12:02:09.187Z,46.65
2022-09-01T12:07:37.550Z,45.53
2022-09-01T12:12:46.452Z,45.64
2022-09-01T12:17:55.303Z,46.18
2022-09-01T12:23:04.019Z,45.74
2022-09-01T12:28:12.589Z,45.73
2022-09-01T12:33:25.102Z,44.41
2022-09-01T12:38:34.142Z,44.70
2022-09-01T12:43:43.362Z,44.69
2022-09-01T12:48:53.623Z,44.85
2022-09-01T12:54:04.711Z,44.95
2022-09-01T12:59:20.985Z,45.71
2022-09-01T13:04:39.945Z,45.04
2022-09-01T13:09:47.498Z,44.26
2022-09-01T13:14:54.547Z,45.33
2022-09-01T13:20:03.852Z,46.08
2022-09-01T13:25:13.559Z,44.95
2022-09-01T13:30:28.683Z,46.15
2022-09-01T13:35:36.213Z,45.01
2022-09-01T13:40:46.462Z,45.45
2022-09-01T13:45:56.631Z,45.02
2022-09-01T13:51:15.623Z,45.61
2022-09-01T13:56:25.133Z,45.41
2022-09-01T14:01:43.340Z,44.62
2022-09-01T14:07:00.093Z,44.02
2022-09-01T14:12:33.721Z,44.78
2022-09-01T14:17:43.605Z,44.71
2022-09-01T14:22:52.651Z,44.00
2022-09-01T14:28:04.595Z,43.40
2022-09-01T14:33:16.244Z,41.38
2022-09-01T14:38:25.086Z,42.01
2022-09-01T14:43:38.432Z,42.61
2022-09-01T14:48:48.992Z,41.98
2022-09-01T14:53:57.448Z,42.29
2022-09-01T14:59:09.142Z,41.46
2022-09-01T15:04:17.220Z,41.88
2022-09-01T15:09:25.510Z,41.45
2022-09-01T15:14:38.236Z,43.18
2022-09-01T15:20:37.520Z,43.59
2022-09-01T15:25:48.763Z,44.61
2022-09-01T15:31:00.351Z,45.28
2022-09-01T15:36:16.321Z,45.69
2022-09-01T15:41:32.053Z,46.38
2022-09-01T15:46:54.626Z,46.90
2022-09-01T15:52:08.505Z,47.10
2022-09-01T15:57:37.067Z,47.34
2022-09-01T16:02:49.127Z,45.77
2022-09-01T16:08:15.218Z,44.85
2022-09-01T16:13:40.470Z,44.49
2022-09-01T16:18:56.782Z,44.97
2022-09-01T16:24:13.572Z,45.45
2022-09-01T16:29:45.108Z,45.90
2022-09-01T16:34:57.772Z,46.63
2022-09-01T16:40:19.179Z,46.82
2022-09-01T16:45:43.031Z,47.28
2022-09-01T16:50:58.979Z,47.46
2022-09-01T16:56:12.459Z,47.53
2022-09-01T17:01:30.654Z,47.21
2022-09-01T17:06:56.672Z,47.55
2022-09-01T17:12:23.604Z,48.30
2022-09-01T17:17:40.576Z,47.86
2022-09-01T17:22:53.779Z,48.44
2022-09-01T17:28:04.967Z,49.53
2022-09-01T17:33:23.643Z,50.65
2022-09-01T17:38:40.020Z,51.72
2022-09-01T17:44:32.419Z,52.45
2022-09-01T17:50:26.608Z,53.01
2022-09-01T17:55:51.067Z,53.56
2022-09-01T18:01:17.643Z,53.90
2022-09-01T18:06:52.952Z,53.63
2022-09-01T18:12:10.256Z,53.71
2022-09-01T18:17:30.009Z,53.94
2022-09-01T18:23:01.387Z,54.66
2022-09-01T18:28:22.272Z,55.40
2022-09-01T18:34:07.087Z,55.93
2022-09-01T18:39:31.056Z,56.32
2022-09-01T18:45:09.048Z,56.69
2022-09-01T18:51:13.640Z,57.10
2022-09-01T18:56:57.477Z,57.43
2022-09-01T19:02:34.101Z,57.30
2022-09-01T19:07:56.039Z,57.13
2022-09-01T19:13:15.626Z,57.63
2022-09-01T19:25:14.667Z,58.47
2022-09-01T19:30:56.721Z,59.60
2022-09-01T19:36:26.997Z,60.07
2022-09-01T19:42:25.630Z,60.64
2022-09-01T19:48:01.575Z,60.84
2022-09-01T19:54:44.570Z,60.93
2022-09-01T20:00:27.358Z,61.22
2022-09-01T20:06:22.779Z,61.15
2022-09-01T20:31:37.818Z,62.73
2022-09-01T20:37:42.260Z,62.92
2022-09-01T20:43:52.600Z,63.14
2022-09-01T20:49:44.218Z,63.12
2022-09-01T20:55:21.429Z,63.62
2022-09-01T21:01:49.011Z,64.12
2022-09-01T21:07:31.060Z,64.66
2022-09-01T21:32:34.170Z,66.31
2022-09-01T21:38:35.209Z,66.25
2022-09-01T21:44:28.896Z,66.60
2022-09-01T21:56:49.673Z,67.39
2022-09-01T22:02:34.546Z,67.98
2022-09-01T22:07:47.898Z,68.38
2022-09-01T22:13:04.022Z,68.55
2022-09-01T22:18:16.348Z,69.03
2022-09-01T22:23:27.335Z,69.18
2022-09-01T22:28:44.665Z,69.34
2022-09-01T22:33:58.019Z,69.47
2022-09-01T22:39:12.349Z,69.43
2022-09-01T22:44:23.480Z,69.61
2022-09-01T22:49:33.641Z,69.58
2022-09-01T22:54:45.831Z,69.76
2022-09-01T23:00:22.476Z,69.71
2022-09-01T23:05:51.431Z,69.70
2022-09-01T23:11:02.270Z,69.59
2022-09-01T23:16:22.446Z,69.57
2022-09-01T23:21:33.695Z,69.72
2022-09-01T23:26:45.009Z,69.88
2022-09-01T23:32:06.865Z,69.95
2022-09-01T23:37:15.531Z,70.10
2022-09-01T23:42:25.916Z,70.71
2022-09-01T23:47:35.849Z,71.22
2022-09-01T23:52:44.256Z,71.51
2022-09-01T23:57:51.974Z,71.91
